sensor_id;sensor_type;location;lat;lon;timestamp;P1;durP1;ratioP1;P2;durP2;ratioP2
8831;SDS011;4452;50.756;4.472;2023-07-09T00:00:44;10.38;;;8.70;;
8831;SDS011;4452;50.756;4.472;2023-07-09T00:03:12;10.23;;;8.38;;
8831;SDS011;4452;50.756;4.472;2023-07-09T00:05:38;19.60;;;8.88;;
8831;SDS011;4452;50.756;4.472;2023-07-09T00:08:03;9.73;;;7.43;;
8831;SDS011;4452;50.756;4.472;2023-07-09T00:10:29;12.10;;;8.63;;
8831;SDS011;4452;50.756;4.472;2023-07-09T00:12:55;19.17;;;8.32;;
8831;SDS011;4452;50.756;4.472;2023-07-09T00:15:21;15.52;;;8.38;;
8831;SDS011;4452;50.756;4.472;2023-07-09T00:17:47;12.35;;;8.00;;
8831;SDS011;4452;50.756;4.472;2023-07-09T00:20:14;18.98;;;11.05;;
8831;SDS011;4452;50.756;4.472;2023-07-09T00:22:44;15.43;;;9.68;;
8831;SDS011;4452;50.756;4.472;2023-07-09T00:25:18;12.43;;;9.30;;
8831;SDS011;4452;50.756;4.472;2023-07-09T00:27:46;10.80;;;9.15;;
8831;SDS011;4452;50.756;4.472;2023-07-09T00:30:21;16.75;;;9.00;;
8831;SDS011;4452;50.756;4.472;2023-07-09T00:32:48;13.27;;;8.90;;
8831;SDS011;4452;50.756;4.472;2023-07-09T00:35:14;16.70;;;8.93;;
8831;SDS011;4452;50.756;4.472;2023-07-09T00:37:41;14.00;;;9.43;;
8831;SDS011;4452;50.756;4.472;2023-07-09T00:40:18;10.80;;;9.15;;
8831;SDS011;4452;50.756;4.472;2023-07-09T00:42:48;17.58;;;9.88;;
8831;SDS011;4452;50.756;4.472;2023-07-09T00:45:20;11.13;;;9.23;;
8831;SDS011;4452;50.756;4.472;2023-07-09T00:47:48;17.83;;;8.98;;
8831;SDS011;4452;50.756;4.472;2023-07-09T00:56:10;18.15;;;9.35;;
8831;SDS011;4452;50.756;4.472;2023-07-09T00:58:36;17.52;;;9.27;;
8831;SDS011;4452;50.756;4.472;2023-07-09T01:01:04;17.00;;;9.18;;
8831;SDS011;4452;50.756;4.472;2023-07-09T01:03:42;12.73;;;9.02;;
8831;SDS011;4452;50.756;4.472;2023-07-09T01:06:11;16.95;;;9.75;;
8831;SDS011;4452;50.756;4.472;2023-07-09T01:08:38;15.43;;;9.23;;
8831;SDS011;4452;50.756;4.472;2023-07-09T01:11:17;14.90;;;9.63;;
8831;SDS011;4452;50.756;4.472;2023-07-09T01:13:47;13.38;;;9.40;;
8831;SDS011;4452;50.756;4.472;2023-07-09T01:16:16;14.50;;;9.50;;
8831;SDS011;4452;50.756;4.472;2023-07-09T01:18:42;12.88;;;9.50;;
8831;SDS011;4452;50.756;4.472;2023-07-09T01:21:09;15.05;;;9.45;;
8831;SDS011;4452;50.756;4.472;2023-07-09T01:23:44;15.80;;;10.45;;
8831;SDS011;4452;50.756;4.472;2023-07-09T01:26:13;14.20;;;9.65;;
8831;SDS011;4452;50.756;4.472;2023-07-09T01:28:42;15.63;;;9.65;;
8831;SDS011;4452;50.756;4.472;2023-07-09T01:31:11;13.05;;;10.07;;
8831;SDS011;4452;50.756;4.472;2023-07-09T01:33:38;20.60;;;10.02;;
8831;SDS011;4452;50.756;4.472;2023-07-09T01:36:06;15.02;;;10.32;;
8831;SDS011;4452;50.756;4.472;2023-07-09T01:38:33;12.15;;;8.75;;
8831;SDS011;4452;50.756;4.472;2023-07-09T01:41:00;12.38;;;9.30;;
8831;SDS011;4452;50.756;4.472;2023-07-09T01:43:26;13.05;;;8.93;;
8831;SDS011;4452;50.756;4.472;2023-07-09T01:45:53;17.98;;;9.40;;
8831;SDS011;4452;50.756;4.472;2023-07-09T01:48:22;13.07;;;9.85;;
8831;SDS011;4452;50.756;4.472;2023-07-09T01:50:49;14.15;;;9.88;;
8831;SDS011;4452;50.756;4.472;2023-07-09T01:53:17;14.25;;;10.07;;
8831;SDS011;4452;50.756;4.472;2023-07-09T01:55:48;18.03;;;10.07;;
8831;SDS011;4452;50.756;4.472;2023-07-09T01:58:19;19.27;;;10.23;;
8831;SDS011;4452;50.756;4.472;2023-07-09T02:00:49;12.55;;;10.13;;
8831;SDS011;4452;50.756;4.472;2023-07-09T02:03:15;12.93;;;9.52;;
8831;SDS011;4452;50.756;4.472;2023-07-09T02:05:42;18.33;;;9.40;;
8831;SDS011;4452;50.756;4.472;2023-07-09T02:08:08;15.65;;;8.65;;
8831;SDS011;4452;50.756;4.472;2023-07-09T02:10:34;11.32;;;7.90;;
8831;SDS011;4452;50.756;4.472;2023-07-09T02:12:59;10.38;;;7.53;;
8831;SDS011;4452;50.756;4.472;2023-07-09T02:15:25;13.20;;;7.43;;
8831;SDS011;4452;50.756;4.472;2023-07-09T02:17:51;14.27;;;7.88;;
8831;SDS011;4452;50.756;4.472;2023-07-09T02:20:17;11.30;;;7.45;;
8831;SDS011;4452;50.756;4.472;2023-07-09T02:22:44;12.20;;;7.72;;
8831;SDS011;4452;50.756;4.472;2023-07-09T02:25:10;14.35;;;7.93;;
8831;SDS011;4452;50.756;4.472;2023-07-09T02:27:36;13.57;;;8.05;;
8831;SDS011;4452;50.756;4.472;2023-07-09T02:30:03;10.18;;;7.53;;
8831;SDS011;4452;50.756;4.472;2023-07-09T02:32:30;13.07;;;8.30;;
8831;SDS011;4452;50.756;4.472;2023-07-09T02:34:56;12.88;;;7.95;;
8831;SDS011;4452;50.756;4.472;2023-07-09T02:37:23;10.77;;;7.53;;
8831;SDS011;4452;50.756;4.472;2023-07-09T02:39:49;12.82;;;7.60;;
8831;SDS011;4452;50.756;4.472;2023-07-09T02:42:16;10.55;;;7.78;;
8831;SDS011;4452;50.756;4.472;2023-07-09T02:44:43;12.02;;;7.63;;
8831;SDS011;4452;50.756;4.472;2023-07-09T02:47:09;9.95;;;7.63;;
8831;SDS011;4452;50.756;4.472;2023-07-09T02:49:36;10.90;;;7.53;;
8831;SDS011;4452;50.756;4.472;2023-07-09T02:52:03;10.23;;;7.40;;
8831;SDS011;4452;50.756;4.472;2023-07-09T02:54:29;8.50;;;6.82;;
8831;SDS011;4452;50.756;4.472;2023-07-09T02:56:55;10.25;;;7.18;;
8831;SDS011;4452;50.756;4.472;2023-07-09T02:59:21;10.10;;;7.15;;
8831;SDS011;4452;50.756;4.472;2023-07-09T03:01:47;9.55;;;7.25;;
8831;SDS011;4452;50.756;4.472;2023-07-09T03:04:14;11.32;;;7.60;;
8831;SDS011;4452;50.756;4.472;2023-07-09T03:06:40;13.07;;;7.95;;
8831;SDS011;4452;50.756;4.472;2023-07-09T03:09:06;17.52;;;7.47;;
8831;SDS011;4452;50.756;4.472;2023-07-09T03:11:34;10.10;;;7.20;;
8831;SDS011;4452;50.756;4.472;2023-07-09T03:14:00;9.27;;;7.65;;
8831;SDS011;4452;50.756;4.472;2023-07-09T03:16:27;14.15;;;7.72;;
8831;SDS011;4452;50.756;4.472;2023-07-09T03:18:54;9.35;;;7.50;;
8831;SDS011;4452;50.756;4.472;2023-07-09T03:21:21;10.18;;;7.65;;
8831;SDS011;4452;50.756;4.472;2023-07-09T03:23:47;12.35;;;7.97;;
8831;SDS011;4452;50.756;4.472;2023-07-09T03:26:13;10.27;;;7.30;;
8831;SDS011;4452;50.756;4.472;2023-07-09T03:28:38;11.93;;;7.88;;
8831;SDS011;4452;50.756;4.472;2023-07-09T03:31:04;16.45;;;7.90;;
8831;SDS011;4452;50.756;4.472;2023-07-09T03:33:29;13.90;;;7.80;;
8831;SDS011;4452;50.756;4.472;2023-07-09T03:35:55;15.80;;;7.78;;
8831;SDS011;4452;50.756;4.472;2023-07-09T03:38:21;9.23;;;7.50;;
8831;SDS011;4452;50.756;4.472;2023-07-09T03:40:51;11.30;;;7.70;;
8831;SDS011;4452;50.756;4.472;2023-07-09T03:43:20;13.10;;;7.10;;
8831;SDS011;4452;50.756;4.472;2023-07-09T03:45:46;8.10;;;7.25;;
8831;SDS011;4452;50.756;4.472;2023-07-09T03:48:13;12.20;;;7.25;;
8831;SDS011;4452;50.756;4.472;2023-07-09T03:50:41;10.50;;;7.28;;
8831;SDS011;4452;50.756;4.472;2023-07-09T03:53:08;11.82;;;7.47;;
8831;SDS011;4452;50.756;4.472;2023-07-09T03:55:34;11.18;;;7.35;;
8831;SDS011;4452;50.756;4.472;2023-07-09T03:58:00;9.52;;;7.00;;
8831;SDS011;4452;50.756;4.472;2023-07-09T04:00:28;14.35;;;7.47;;
8831;SDS011;4452;50.756;4.472;2023-07-09T04:02:54;9.02;;;6.88;;
8831;SDS011;4452;50.756;4.472;2023-07-09T04:05:21;11.20;;;7.80;;
8831;SDS011;4452;50.756;4.472;2023-07-09T04:07:48;11.90;;;7.35;;
8831;SDS011;4452;50.756;4.472;2023-07-09T04:10:14;8.60;;;7.10;;
8831;SDS011;4452;50.756;4.472;2023-07-09T04:12:40;15.35;;;7.53;;
8831;SDS011;4452;50.756;4.472;2023-07-09T04:15:06;16.45;;;6.97;;
8831;SDS011;4452;50.756;4.472;2023-07-09T04:17:32;11.90;;;7.15;;
8831;SDS011;4452;50.756;4.472;2023-07-09T04:19:58;11.88;;;7.05;;
8831;SDS011;4452;50.756;4.472;2023-07-09T04:22:23;8.50;;;6.53;;
8831;SDS011;4452;50.756;4.472;2023-07-09T04:24:49;30.10;;;7.25;;
8831;SDS011;4452;50.756;4.472;2023-07-09T04:27:15;18.15;;;7.32;;
8831;SDS011;4452;50.756;4.472;2023-07-09T04:29:41;10.52;;;7.00;;
8831;SDS011;4452;50.756;4.472;2023-07-09T04:32:07;12.85;;;7.15;;
8831;SDS011;4452;50.756;4.472;2023-07-09T04:34:37;15.95;;;7.15;;
8831;SDS011;4452;50.756;4.472;2023-07-09T04:37:05;12.15;;;6.55;;
8831;SDS011;4452;50.756;4.472;2023-07-09T04:39:31;14.52;;;7.10;;
8831;SDS011;4452;50.756;4.472;2023-07-09T04:41:57;13.10;;;7.50;;
8831;SDS011;4452;50.756;4.472;2023-07-09T04:44:23;10.13;;;6.68;;
8831;SDS011;4452;50.756;4.472;2023-07-09T04:46:49;10.70;;;7.35;;
8831;SDS011;4452;50.756;4.472;2023-07-09T04:49:15;13.43;;;7.20;;
8831;SDS011;4452;50.756;4.472;2023-07-09T04:51:41;11.25;;;7.18;;
8831;SDS011;4452;50.756;4.472;2023-07-09T04:54:07;10.88;;;7.57;;
8831;SDS011;4452;50.756;4.472;2023-07-09T04:56:33;9.18;;;6.95;;
8831;SDS011;4452;50.756;4.472;2023-07-09T04:58:58;12.27;;;7.00;;
8831;SDS011;4452;50.756;4.472;2023-07-09T05:01:24;13.93;;;6.63;;
8831;SDS011;4452;50.756;4.472;2023-07-09T05:03:50;11.82;;;6.72;;
8831;SDS011;4452;50.756;4.472;2023-07-09T05:06:15;10.02;;;6.70;;
8831;SDS011;4452;50.756;4.472;2023-07-09T05:08:41;14.43;;;7.25;;
8831;SDS011;4452;50.756;4.472;2023-07-09T05:11:08;13.50;;;6.53;;
8831;SDS011;4452;50.756;4.472;2023-07-09T05:13:34;10.20;;;6.65;;
8831;SDS011;4452;50.756;4.472;2023-07-09T05:15:59;10.38;;;6.75;;
8831;SDS011;4452;50.756;4.472;2023-07-09T05:18:25;11.80;;;6.85;;
8831;SDS011;4452;50.756;4.472;2023-07-09T05:20:50;11.48;;;7.00;;
8831;SDS011;4452;50.756;4.472;2023-07-09T05:23:16;11.15;;;6.60;;
8831;SDS011;4452;50.756;4.472;2023-07-09T05:25:42;8.70;;;6.30;;
8831;SDS011;4452;50.756;4.472;2023-07-09T05:28:07;12.00;;;6.93;;
8831;SDS011;4452;50.756;4.472;2023-07-09T05:30:33;9.73;;;5.95;;
8831;SDS011;4452;50.756;4.472;2023-07-09T05:32:59;13.05;;;5.97;;
8831;SDS011;4452;50.756;4.472;2023-07-09T05:35:25;11.10;;;5.88;;
8831;SDS011;4452;50.756;4.472;2023-07-09T05:37:55;6.38;;;5.50;;
8831;SDS011;4452;50.756;4.472;2023-07-09T05:40:21;8.95;;;5.30;;
8831;SDS011;4452;50.756;4.472;2023-07-09T05:42:47;7.95;;;6.20;;
8831;SDS011;4452;50.756;4.472;2023-07-09T05:45:13;10.57;;;5.90;;
8831;SDS011;4452;50.756;4.472;2023-07-09T05:47:40;11.15;;;5.78;;
8831;SDS011;4452;50.756;4.472;2023-07-09T05:50:06;13.60;;;5.97;;
8831;SDS011;4452;50.756;4.472;2023-07-09T05:52:32;8.30;;;5.75;;
8831;SDS011;4452;50.756;4.472;2023-07-09T05:54:58;10.23;;;6.03;;
8831;SDS011;4452;50.756;4.472;2023-07-09T05:57:27;11.43;;;6.10;;
8831;SDS011;4452;50.756;4.472;2023-07-09T05:59:52;11.45;;;6.20;;
8831;SDS011;4452;50.756;4.472;2023-07-09T06:02:19;9.52;;;5.72;;
8831;SDS011;4452;50.756;4.472;2023-07-09T06:04:46;9.18;;;5.90;;
8831;SDS011;4452;50.756;4.472;2023-07-09T06:07:14;9.63;;;5.53;;
8831;SDS011;4452;50.756;4.472;2023-07-09T06:09:40;8.38;;;6.15;;
8831;SDS011;4452;50.756;4.472;2023-07-09T06:12:06;9.75;;;6.18;;
8831;SDS011;4452;50.756;4.472;2023-07-09T06:14:32;8.52;;;6.07;;
8831;SDS011;4452;50.756;4.472;2023-07-09T06:16:58;11.85;;;6.00;;
8831;SDS011;4452;50.756;4.472;2023-07-09T06:19:25;7.50;;;5.80;;
8831;SDS011;4452;50.756;4.472;2023-07-09T06:21:51;9.65;;;6.05;;
8831;SDS011;4452;50.756;4.472;2023-07-09T06:24:16;9.93;;;6.03;;
8831;SDS011;4452;50.756;4.472;2023-07-09T06:26:42;10.65;;;5.55;;
8831;SDS011;4452;50.756;4.472;2023-07-09T06:29:08;9.98;;;5.80;;
8831;SDS011;4452;50.756;4.472;2023-07-09T06:31:33;12.20;;;5.82;;
8831;SDS011;4452;50.756;4.472;2023-07-09T06:33:59;9.57;;;5.82;;
8831;SDS011;4452;50.756;4.472;2023-07-09T06:36:24;12.35;;;6.07;;
8831;SDS011;4452;50.756;4.472;2023-07-09T06:38:50;9.82;;;5.90;;
8831;SDS011;4452;50.756;4.472;2023-07-09T06:41:16;7.63;;;5.90;;
8831;SDS011;4452;50.756;4.472;2023-07-09T06:43:42;12.45;;;6.68;;
8831;SDS011;4452;50.756;4.472;2023-07-09T06:46:09;10.85;;;5.88;;
8831;SDS011;4452;50.756;4.472;2023-07-09T06:48:37;12.88;;;6.00;;
8831;SDS011;4452;50.756;4.472;2023-07-09T06:51:02;10.07;;;5.47;;
8831;SDS011;4452;50.756;4.472;2023-07-09T06:53:29;8.35;;;6.10;;
8831;SDS011;4452;50.756;4.472;2023-07-09T06:55:55;9.52;;;5.70;;
8831;SDS011;4452;50.756;4.472;2023-07-09T06:58:24;7.50;;;5.95;;
8831;SDS011;4452;50.756;4.472;2023-07-09T07:00:52;8.05;;;5.38;;
8831;SDS011;4452;50.756;4.472;2023-07-09T07:03:19;7.20;;;5.55;;
8831;SDS011;4452;50.756;4.472;2023-07-09T07:05:46;8.15;;;5.72;;
8831;SDS011;4452;50.756;4.472;2023-07-09T07:08:15;10.25;;;5.53;;
8831;SDS011;4452;50.756;4.472;2023-07-09T07:10:43;11.82;;;6.00;;
8831;SDS011;4452;50.756;4.472;2023-07-09T07:13:09;9.05;;;5.55;;
8831;SDS011;4452;50.756;4.472;2023-07-09T07:15:36;10.85;;;5.90;;
8831;SDS011;4452;50.756;4.472;2023-07-09T07:18:03;9.90;;;5.43;;
8831;SDS011;4452;50.756;4.472;2023-07-09T07:20:29;8.32;;;5.43;;
8831;SDS011;4452;50.756;4.472;2023-07-09T07:22:55;10.88;;;5.78;;
8831;SDS011;4452;50.756;4.472;2023-07-09T07:25:21;8.18;;;5.80;;
8831;SDS011;4452;50.756;4.472;2023-07-09T07:27:47;9.77;;;5.38;;
8831;SDS011;4452;50.756;4.472;2023-07-09T07:30:12;10.45;;;5.68;;
8831;SDS011;4452;50.756;4.472;2023-07-09T07:32:42;10.57;;;5.60;;
8831;SDS011;4452;50.756;4.472;2023-07-09T07:35:09;13.63;;;6.10;;
8831;SDS011;4452;50.756;4.472;2023-07-09T07:37:35;6.75;;;5.82;;
8831;SDS011;4452;50.756;4.472;2023-07-09T07:40:01;9.73;;;6.57;;
8831;SDS011;4452;50.756;4.472;2023-07-09T07:42:27;7.60;;;5.60;;
8831;SDS011;4452;50.756;4.472;2023-07-09T07:44:53;9.45;;;6.15;;
8831;SDS011;4452;50.756;4.472;2023-07-09T07:47:18;11.20;;;6.97;;
8831;SDS011;4452;50.756;4.472;2023-07-09T07:49:44;13.70;;;7.15;;
8831;SDS011;4452;50.756;4.472;2023-07-09T07:52:10;10.65;;;7.28;;
8831;SDS011;4452;50.756;4.472;2023-07-09T07:54:35;11.80;;;7.47;;
8831;SDS011;4452;50.756;4.472;2023-07-09T07:57:02;9.95;;;7.60;;
8831;SDS011;4452;50.756;4.472;2023-07-09T07:59:28;17.20;;;7.53;;
8831;SDS011;4452;50.756;4.472;2023-07-09T08:01:54;10.60;;;7.95;;
8831;SDS011;4452;50.756;4.472;2023-07-09T08:04:20;10.70;;;7.97;;
8831;SDS011;4452;50.756;4.472;2023-07-09T08:06:45;15.50;;;8.35;;
8831;SDS011;4452;50.756;4.472;2023-07-09T08:09:11;15.65;;;8.50;;
8831;SDS011;4452;50.756;4.472;2023-07-09T08:11:37;11.32;;;8.10;;
8831;SDS011;4452;50.756;4.472;2023-07-09T08:14:02;17.50;;;8.23;;
8831;SDS011;4452;50.756;4.472;2023-07-09T08:16:30;14.32;;;9.82;;
8831;SDS011;4452;50.756;4.472;2023-07-09T08:18:56;14.05;;;8.68;;
8831;SDS011;4452;50.756;4.472;2023-07-09T08:21:22;18.63;;;10.02;;
8831;SDS011;4452;50.756;4.472;2023-07-09T08:23:47;18.75;;;11.93;;
8831;SDS011;4452;50.756;4.472;2023-07-09T08:26:13;21.42;;;11.02;;
8831;SDS011;4452;50.756;4.472;2023-07-09T08:28:38;23.70;;;15.77;;
8831;SDS011;4452;50.756;4.472;2023-07-09T08:31:04;27.63;;;15.60;;
8831;SDS011;4452;50.756;4.472;2023-07-09T08:33:30;21.85;;;14.68;;
8831;SDS011;4452;50.756;4.472;2023-07-09T08:35:56;24.08;;;16.88;;
8831;SDS011;4452;50.756;4.472;2023-07-09T08:38:22;23.77;;;16.00;;
8831;SDS011;4452;50.756;4.472;2023-07-09T08:40:58;26.58;;;14.18;;
8831;SDS011;4452;50.756;4.472;2023-07-09T08:46:20;25.17;;;15.80;;
8831;SDS011;4452;50.756;4.472;2023-07-09T08:48:59;25.35;;;15.80;;
8831;SDS011;4452;50.756;4.472;2023-07-09T08:51:45;19.20;;;14.23;;
8831;SDS011;4452;50.756;4.472;2023-07-09T08:54:14;31.10;;;16.83;;
8831;SDS011;4452;50.756;4.472;2023-07-09T08:56:50;27.80;;;16.17;;
8831;SDS011;4452;50.756;4.472;2023-07-09T08:59:15;25.17;;;16.40;;
8831;SDS011;4452;50.756;4.472;2023-07-09T09:01:51;23.27;;;16.70;;
8831;SDS011;4452;50.756;4.472;2023-07-09T09:04:29;30.30;;;15.18;;
8831;SDS011;4452;50.756;4.472;2023-07-09T09:10:07;22.25;;;13.85;;
8831;SDS011;4452;50.756;4.472;2023-07-09T09:12:53;18.42;;;11.77;;
8831;SDS011;4452;50.756;4.472;2023-07-09T09:15:27;18.65;;;14.25;;
8831;SDS011;4452;50.756;4.472;2023-07-09T09:17:54;23.05;;;14.85;;
8831;SDS011;4452;50.756;4.472;2023-07-09T09:20:24;22.13;;;14.48;;
8831;SDS011;4452;50.756;4.472;2023-07-09T09:23:28;19.13;;;12.85;;
8831;SDS011;4452;50.756;4.472;2023-07-09T09:25:48;19.30;;;13.30;;
8831;SDS011;4452;50.756;4.472;2023-07-09T09:28:18;19.55;;;14.00;;
8831;SDS011;4452;50.756;4.472;2023-07-09T09:30:43;21.48;;;14.85;;
8831;SDS011;4452;50.756;4.472;2023-07-09T09:33:10;18.38;;;13.82;;
8831;SDS011;4452;50.756;4.472;2023-07-09T09:35:40;21.85;;;13.43;;
8831;SDS011;4452;50.756;4.472;2023-07-09T09:38:12;23.90;;;14.02;;
8831;SDS011;4452;50.756;4.472;2023-07-09T09:40:41;23.95;;;14.10;;
8831;SDS011;4452;50.756;4.472;2023-07-09T09:43:16;25.70;;;14.27;;
8831;SDS011;4452;50.756;4.472;2023-07-09T09:45:44;19.38;;;13.40;;
8831;SDS011;4452;50.756;4.472;2023-07-09T09:48:16;19.17;;;12.73;;
8831;SDS011;4452;50.756;4.472;2023-07-09T09:50:51;24.42;;;14.30;;
8831;SDS011;4452;50.756;4.472;2023-07-09T09:53:21;29.25;;;15.40;;
8831;SDS011;4452;50.756;4.472;2023-07-09T09:55:49;24.60;;;15.30;;
8831;SDS011;4452;50.756;4.472;2023-07-09T09:58:17;26.42;;;16.50;;
8831;SDS011;4452;50.756;4.472;2023-07-09T10:00:50;23.35;;;15.43;;
8831;SDS011;4452;50.756;4.472;2023-07-09T10:03:17;23.88;;;15.68;;
8831;SDS011;4452;50.756;4.472;2023-07-09T10:05:55;22.88;;;16.08;;
8831;SDS011;4452;50.756;4.472;2023-07-09T10:11:17;22.73;;;16.60;;
8831;SDS011;4452;50.756;4.472;2023-07-09T10:13:49;20.98;;;14.48;;
8831;SDS011;4452;50.756;4.472;2023-07-09T10:16:25;24.17;;;15.23;;
8831;SDS011;4452;50.756;4.472;2023-07-09T10:19:12;22.40;;;16.70;;
8831;SDS011;4452;50.756;4.472;2023-07-09T10:21:57;21.98;;;15.90;;
8831;SDS011;4452;50.756;4.472;2023-07-09T10:24:32;20.50;;;13.25;;
8831;SDS011;4452;50.756;4.472;2023-07-09T10:32:58;17.98;;;12.80;;
8831;SDS011;4452;50.756;4.472;2023-07-09T10:35:37;20.05;;;13.63;;
8831;SDS011;4452;50.756;4.472;2023-07-09T10:40:55;19.88;;;13.27;;
8831;SDS011;4452;50.756;4.472;2023-07-09T10:43:25;21.17;;;13.75;;
8831;SDS011;4452;50.756;4.472;2023-07-09T10:45:54;25.30;;;13.00;;
8831;SDS011;4452;50.756;4.472;2023-07-09T10:51:03;22.00;;;15.20;;
8831;SDS011;4452;50.756;4.472;2023-07-09T10:53:41;25.08;;;16.15;;
8831;SDS011;4452;50.756;4.472;2023-07-09T10:56:11;24.07;;;14.17;;
8831;SDS011;4452;50.756;4.472;2023-07-09T10:58:48;21.27;;;14.20;;
8831;SDS011;4452;50.756;4.472;2023-07-09T11:01:32;24.40;;;14.98;;
8831;SDS011;4452;50.756;4.472;2023-07-09T11:04:03;26.77;;;15.60;;
8831;SDS011;4452;50.756;4.472;2023-07-09T11:06:49;23.15;;;15.98;;
8831;SDS011;4452;50.756;4.472;2023-07-09T11:09:29;22.02;;;15.00;;
8831;SDS011;4452;50.756;4.472;2023-07-09T11:11:59;24.73;;;13.93;;
8831;SDS011;4452;50.756;4.472;2023-07-09T11:14:40;22.15;;;14.30;;
8831;SDS011;4452;50.756;4.472;2023-07-09T11:19:47;23.98;;;16.52;;
8831;SDS011;4452;50.756;4.472;2023-07-09T11:25:26;23.52;;;16.42;;
8831;SDS011;4452;50.756;4.472;2023-07-09T11:28:03;26.77;;;16.40;;
8831;SDS011;4452;50.756;4.472;2023-07-09T11:30:30;28.83;;;16.85;;
8831;SDS011;4452;50.756;4.472;2023-07-09T11:32:57;23.52;;;15.68;;
8831;SDS011;4452;50.756;4.472;2023-07-09T11:35:24;25.40;;;14.45;;
8831;SDS011;4452;50.756;4.472;2023-07-09T11:37:51;22.60;;;14.73;;
8831;SDS011;4452;50.756;4.472;2023-07-09T11:40:18;22.35;;;14.27;;
8831;SDS011;4452;50.756;4.472;2023-07-09T11:45:13;15.40;;;12.50;;
8831;SDS011;4452;50.756;4.472;2023-07-09T11:50:49;20.17;;;11.80;;
8831;SDS011;4452;50.756;4.472;2023-07-09T11:55:54;18.13;;;11.13;;
8831;SDS011;4452;50.756;4.472;2023-07-09T11:58:20;18.27;;;10.00;;
8831;SDS011;4452;50.756;4.472;2023-07-09T12:00:49;14.50;;;9.95;;
8831;SDS011;4452;50.756;4.472;2023-07-09T12:03:21;11.40;;;9.02;;
8831;SDS011;4452;50.756;4.472;2023-07-09T12:06:02;13.25;;;9.45;;
8831;SDS011;4452;50.756;4.472;2023-07-09T12:08:36;17.20;;;8.93;;
8831;SDS011;4452;50.756;4.472;2023-07-09T12:11:04;12.88;;;8.52;;
8831;SDS011;4452;50.756;4.472;2023-07-09T12:13:39;12.98;;;8.52;;
8831;SDS011;4452;50.756;4.472;2023-07-09T12:18:53;26.10;;;14.63;;
8831;SDS011;4452;50.756;4.472;2023-07-09T12:21:19;19.17;;;17.30;;
8831;SDS011;4452;50.756;4.472;2023-07-09T12:23:45;18.75;;;16.75;;
8831;SDS011;4452;50.756;4.472;2023-07-09T12:26:15;20.77;;;13.93;;
8831;SDS011;4452;50.756;4.472;2023-07-09T12:28:42;21.45;;;14.88;;
8831;SDS011;4452;50.756;4.472;2023-07-09T12:31:14;28.42;;;15.55;;
8831;SDS011;4452;50.756;4.472;2023-07-09T12:33:48;20.67;;;14.25;;
8831;SDS011;4452;50.756;4.472;2023-07-09T12:36:14;24.40;;;13.48;;
8831;SDS011;4452;50.756;4.472;2023-07-09T12:38:44;24.80;;;13.68;;
8831;SDS011;4452;50.756;4.472;2023-07-09T12:44:04;25.00;;;14.00;;
8831;SDS011;4452;50.756;4.472;2023-07-09T12:46:30;23.40;;;13.43;;
8831;SDS011;4452;50.756;4.472;2023-07-09T12:48:56;24.42;;;13.48;;
8831;SDS011;4452;50.756;4.472;2023-07-09T12:51:24;21.73;;;14.05;;
8831;SDS011;4452;50.756;4.472;2023-07-09T12:54:00;24.70;;;14.05;;
8831;SDS011;4452;50.756;4.472;2023-07-09T12:56:27;24.10;;;15.57;;
8831;SDS011;4452;50.756;4.472;2023-07-09T12:58:56;26.73;;;14.82;;
8831;SDS011;4452;50.756;4.472;2023-07-09T13:01:22;23.05;;;13.95;;
8831;SDS011;4452;50.756;4.472;2023-07-09T13:03:57;20.63;;;13.63;;
8831;SDS011;4452;50.756;4.472;2023-07-09T13:06:26;22.67;;;14.27;;
8831;SDS011;4452;50.756;4.472;2023-07-09T13:08:55;21.63;;;13.38;;
8831;SDS011;4452;50.756;4.472;2023-07-09T13:11:24;24.42;;;15.02;;
8831;SDS011;4452;50.756;4.472;2023-07-09T13:13:57;30.65;;;15.32;;
8831;SDS011;4452;50.756;4.472;2023-07-09T13:16:26;26.75;;;15.55;;
8831;SDS011;4452;50.756;4.472;2023-07-09T13:18:52;22.05;;;14.45;;
8831;SDS011;4452;50.756;4.472;2023-07-09T13:21:19;20.88;;;14.32;;
8831;SDS011;4452;50.756;4.472;2023-07-09T13:23:46;24.80;;;14.90;;
8831;SDS011;4452;50.756;4.472;2023-07-09T13:26:14;28.83;;;14.70;;
8831;SDS011;4452;50.756;4.472;2023-07-09T13:28:41;21.35;;;12.98;;
8831;SDS011;4452;50.756;4.472;2023-07-09T13:31:10;20.17;;;12.85;;
8831;SDS011;4452;50.756;4.472;2023-07-09T13:33:36;19.50;;;12.60;;
8831;SDS011;4452;50.756;4.472;2023-07-09T13:36:02;18.20;;;11.70;;
8831;SDS011;4452;50.756;4.472;2023-07-09T13:38:29;18.20;;;11.15;;
8831;SDS011;4452;50.756;4.472;2023-07-09T13:40:56;18.27;;;11.32;;
8831;SDS011;4452;50.756;4.472;2023-07-09T13:45:55;18.70;;;11.57;;
8831;SDS011;4452;50.756;4.472;2023-07-09T13:48:24;19.67;;;11.38;;
8831;SDS011;4452;50.756;4.472;2023-07-09T13:50:51;15.27;;;11.25;;
8831;SDS011;4452;50.756;4.472;2023-07-09T13:53:20;19.88;;;10.38;;
8831;SDS011;4452;50.756;4.472;2023-07-09T13:55:48;14.23;;;10.75;;
8831;SDS011;4452;50.756;4.472;2023-07-09T13:58:16;15.50;;;10.00;;
8831;SDS011;4452;50.756;4.472;2023-07-09T14:00:44;15.95;;;10.15;;
8831;SDS011;4452;50.756;4.472;2023-07-09T14:03:17;17.65;;;10.57;;
8831;SDS011;4452;50.756;4.472;2023-07-09T14:05:45;14.75;;;10.23;;
8831;SDS011;4452;50.756;4.472;2023-07-09T14:08:11;13.30;;;10.25;;
8831;SDS011;4452;50.756;4.472;2023-07-09T14:10:38;16.20;;;10.45;;
8831;SDS011;4452;50.756;4.472;2023-07-09T14:13:04;14.65;;;10.55;;
8831;SDS011;4452;50.756;4.472;2023-07-09T14:15:30;16.83;;;10.40;;
8831;SDS011;4452;50.756;4.472;2023-07-09T14:17:56;15.65;;;10.20;;
8831;SDS011;4452;50.756;4.472;2023-07-09T14:20:22;14.13;;;9.77;;
8831;SDS011;4452;50.756;4.472;2023-07-09T14:22:48;20.70;;;11.05;;
8831;SDS011;4452;50.756;4.472;2023-07-09T14:25:22;13.02;;;10.30;;
8831;SDS011;4452;50.756;4.472;2023-07-09T14:27:50;17.65;;;10.13;;
8831;SDS011;4452;50.756;4.472;2023-07-09T14:30:17;17.95;;;11.00;;
8831;SDS011;4452;50.756;4.472;2023-07-09T14:32:46;18.48;;;10.95;;
8831;SDS011;4452;50.756;4.472;2023-07-09T14:37:42;14.32;;;10.40;;
8831;SDS011;4452;50.756;4.472;2023-07-09T14:40:09;13.07;;;10.00;;
8831;SDS011;4452;50.756;4.472;2023-07-09T14:42:36;11.75;;;9.77;;
8831;SDS011;4452;50.756;4.472;2023-07-09T14:45:04;15.85;;;10.77;;
8831;SDS011;4452;50.756;4.472;2023-07-09T14:47:30;16.65;;;10.10;;
8831;SDS011;4452;50.756;4.472;2023-07-09T14:49:57;15.88;;;10.15;;
8831;SDS011;4452;50.756;4.472;2023-07-09T14:52:23;16.15;;;10.73;;
8831;SDS011;4452;50.756;4.472;2023-07-09T14:54:48;13.23;;;9.70;;
8831;SDS011;4452;50.756;4.472;2023-07-09T14:57:23;14.00;;;9.93;;
8831;SDS011;4452;50.756;4.472;2023-07-09T14:59:51;13.00;;;9.73;;
8831;SDS011;4452;50.756;4.472;2023-07-09T15:04:48;11.88;;;9.10;;
8831;SDS011;4452;50.756;4.472;2023-07-09T15:07:14;14.45;;;9.10;;
8831;SDS011;4452;50.756;4.472;2023-07-09T15:09:40;22.85;;;10.20;;
8831;SDS011;4452;50.756;4.472;2023-07-09T15:12:16;12.80;;;9.60;;
8831;SDS011;4452;50.756;4.472;2023-07-09T15:14:47;11.90;;;9.20;;
8831;SDS011;4452;50.756;4.472;2023-07-09T15:17:13;13.32;;;9.55;;
8831;SDS011;4452;50.756;4.472;2023-07-09T15:19:39;16.08;;;10.45;;
8831;SDS011;4452;50.756;4.472;2023-07-09T15:22:05;14.23;;;9.63;;
8831;SDS011;4452;50.756;4.472;2023-07-09T15:24:43;12.50;;;10.13;;
8831;SDS011;4452;50.756;4.472;2023-07-09T15:27:08;22.17;;;10.02;;
8831;SDS011;4452;50.756;4.472;2023-07-09T15:29:34;20.13;;;10.38;;
8831;SDS011;4452;50.756;4.472;2023-07-09T15:31:59;12.10;;;9.70;;
8831;SDS011;4452;50.756;4.472;2023-07-09T15:34:25;15.75;;;10.52;;
8831;SDS011;4452;50.756;4.472;2023-07-09T15:36:51;12.95;;;10.18;;
8831;SDS011;4452;50.756;4.472;2023-07-09T15:39:17;13.23;;;9.13;;
8831;SDS011;4452;50.756;4.472;2023-07-09T15:41:45;10.63;;;9.50;;
8831;SDS011;4452;50.756;4.472;2023-07-09T15:44:12;13.70;;;10.20;;
8831;SDS011;4452;50.756;4.472;2023-07-09T15:46:39;12.65;;;9.82;;
8831;SDS011;4452;50.756;4.472;2023-07-09T15:49:06;16.52;;;10.43;;
8831;SDS011;4452;50.756;4.472;2023-07-09T15:51:32;12.73;;;9.68;;
8831;SDS011;4452;50.756;4.472;2023-07-09T15:53:58;12.85;;;9.52;;
8831;SDS011;4452;50.756;4.472;2023-07-09T15:56:24;14.15;;;8.85;;